Time;durP1;ratioP1;P1;durP2;ratioP2;P2;SDS_P1;SDS_P2;PMS_P1;PMS_P2;Temp;Humidity;BMP_temperature;BMP_pressure;BME280_temperature;BME280_humidity;BME280_pressure;Samples;Min_cycle;Max_cycle;Signal;HPM_P1;HPM_P2
2024/01/01 00:02:13;;;;;;;;;19.50;14.75;;;;;-144.24;100.00;114865.94;5064459;27;45431;-69
2024/01/01 00:04:38;;;;;;;;;21.75;13.25;;;;;-144.24;100.00;114865.94;5060134;27;46069;-70
2024/01/01 00:07:03;;;;;;;;;14.25;10.00;;;;;-144.24;100.00;114865.94;5066563;27;62167;-69
2024/01/01 00:09:29;;;;;;;;;8.67;3.00;;;;;-144.24;100.00;114865.94;5061646;27;49753;-67
2024/01/01 00:11:54;;;;;;;;;4.00;2.67;;;;;-144.24;100.00;114865.94;5060037;27;57234;-68
2024/01/01 00:14:19;;;;;;;;;8.00;2.00;;;;;-144.24;100.00;114865.94;5055003;27;65556;-69
2024/01/01 00:16:45;;;;;;;;;5.33;2.00;;;;;-144.24;100.00;114865.94;5059794;27;62976;-68
2024/01/01 00:19:11;;;;;;;;;6.00;2.67;;;;;-144.24;100.00;114865.94;5060578;27;45799;-69
2024/01/01 00:21:37;;;;;;;;;7.33;2.67;;;;;-144.24;100.00;114865.94;5057647;27;45577;-69
2024/01/01 00:24:02;;;;;;;;;7.00;2.00;;;;;-144.24;100.00;114865.94;5055460;28;45813;-67
2024/01/01 00:26:28;;;;;;;;;4.67;2.00;;;;;-144.24;100.00;114865.94;5060129;27;45551;-68
2024/01/01 00:28:53;;;;;;;;;5.00;1.67;;;;;-144.24;100.00;114865.94;5057136;27;69812;-67
2024/01/01 00:31:18;;;;;;;;;7.00;2.00;;;;;-144.24;100.00;114865.94;5059010;28;45456;-69
2024/01/01 00:33:44;;;;;;;;;7.00;2.00;;;;;-144.24;100.00;114865.94;5059497;27;64231;-68
2024/01/01 00:36:09;;;;;;;;;6.00;2.00;;;;;-144.24;100.00;114865.94;5060403;27;45629;-69
2024/01/01 00:38:34;;;;;;;;;3.00;2.00;;;;;-144.24;100.00;114865.94;5060838;28;46096;-68
2024/01/01 00:41:00;;;;;;;;;1.67;1.33;;;;;-144.24;100.00;114865.94;5060333;28;69117;-72
2024/01/01 00:43:25;;;;;;;;;5.00;2.00;;;;;-144.24;100.00;114865.94;5061778;28;61746;-69
2024/01/01 00:45:50;;;;;;;;;8.67;1.00;;;;;-144.24;100.00;114865.94;5063317;27;46769;-69
2024/01/01 00:48:16;;;;;;;;;3.00;1.00;;;;;-144.24;100.00;114865.94;5063898;27;68673;-68
2024/01/01 00:50:41;;;;;;;;;7.67;3.00;;;;;-144.24;100.00;114865.94;5063394;28;45613;-68
2024/01/01 00:53:07;;;;;;;;;4.33;2.00;;;;;-144.24;100.00;114865.94;5071351;27;45450;-67
2024/01/01 00:55:33;;;;;;;;;3.00;3.00;;;;;-144.24;100.00;114865.94;5073557;27;45680;-69
2024/01/01 00:57:58;;;;;;;;;11.67;2.00;;;;;-144.24;100.00;114865.94;5068949;28;46491;-70
2024/01/01 01:00:24;;;;;;;;;5.33;2.33;;;;;-144.24;100.00;114865.94;5068419;28;65648;-69
2024/01/01 01:02:49;;;;;;;;;8.00;2.00;;;;;-144.24;100.00;114865.94;5072939;27;45812;-70
2024/01/01 01:05:14;;;;;;;;;3.00;3.00;;;;;-144.24;100.00;114865.94;5063980;27;65734;-71
2024/01/01 01:07:40;;;;;;;;;7.67;3.00;;;;;-144.24;100.00;114865.94;5065111;27;46659;-68
2024/01/01 01:10:05;;;;;;;;;6.67;2.00;;;;;-144.24;100.00;114865.94;5064160;28;65591;-68
2024/01/01 01:12:31;;;;;;;;;5.00;2.25;;;;;-144.24;100.00;114865.94;5066120;27;45520;-69
2024/01/01 01:14:56;;;;;;;;;6.33;2.00;;;;;-144.24;100.00;114865.94;5062318;27;59483;-68
2024/01/01 01:17:21;;;;;;;;;4.67;2.00;;;;;-144.24;100.00;114865.94;5064876;27;72941;-68
2024/01/01 01:19:46;;;;;;;;;3.00;1.00;;;;;-144.24;100.00;114865.94;5060985;27;63921;-70
2024/01/01 01:22:12;;;;;;;;;7.33;1.00;;;;;-144.24;100.00;114865.94;5064132;28;64685;-69
2024/01/01 01:24:37;;;;;;;;;7.00;3.33;;;;;-144.24;100.00;114865.94;5062217;27;45470;-69
2024/01/01 01:27:03;;;;;;;;;3.67;1.67;;;;;-144.24;100.00;114865.94;5055428;27;74524;-72
2024/01/01 01:29:28;;;;;;;;;7.00;1.67;;;;;-144.24;100.00;114865.94;5063043;27;46508;-72
2024/01/01 01:31:53;;;;;;;;;7.25;3.25;;;;;-144.24;100.00;114865.94;5062111;27;61518;-69
2024/01/01 01:34:20;;;;;;;;;4.50;2.75;;;;;-144.24;100.00;114865.94;5063371;28;58617;-71
2024/01/01 01:36:45;;;;;;;;;6.00;2.00;;;;;-144.24;100.00;114865.94;5069511;27;45992;-73
2024/01/01 01:39:11;;;;;;;;;4.25;3.00;;;;;-144.24;100.00;114865.94;5068799;28;45739;-69
2024/01/01 01:41:38;;;;;;;;;2.67;2.00;;;;;-144.24;100.00;114865.94;5065591;27;45563;-75
2024/01/01 01:44:04;;;;;;;;;9.00;1.67;;;;;-144.24;100.00;114865.94;5068896;27;45653;-68
2024/01/01 01:46:29;;;;;;;;;4.67;1.00;;;;;-144.24;100.00;114865.94;5069748;27;47965;-75
2024/01/01 01:48:55;;;;;;;;;7.00;2.33;;;;;-144.24;100.00;114865.94;5058632;27;60800;-73
2024/01/01 01:51:20;;;;;;;;;7.00;1.67;;;;;-144.24;100.00;114865.94;5059982;27;45497;-68
2024/01/01 01:53:45;;;;;;;;;6.00;2.33;;;;;-144.24;100.00;114865.94;5059236;27;46122;-71
2024/01/01 01:56:13;;;;;;;;;2.00;1.00;;;;;-144.24;100.00;114865.94;5058175;27;46652;-74
2024/01/01 01:58:40;;;;;;;;;2.00;2.00;;;;;-144.24;100.00;114865.94;5066433;27;45520;-73
2024/01/01 02:01:06;;;;;;;;;6.67;1.00;;;;;-144.24;100.00;114865.94;5067340;27;45464;-69
2024/01/01 02:03:32;;;;;;;;;4.00;2.00;;;;;-144.24;100.00;114865.94;5070550;27;45567;-70
2024/01/01 02:05:57;;;;;;;;;5.00;1.67;;;;;-144.24;100.00;114865.94;5067339;28;70618;-69
2024/01/01 02:08:22;;;;;;;;;6.00;2.00;;;;;-144.24;100.00;114865.94;5065814;27;56218;-68
2024/01/01 02:10:48;;;;;;;;;7.25;2.00;;;;;-144.24;100.00;114865.94;5059968;27;45888;-67
2024/01/01 02:13:25;;;;;;;;;7.00;2.00;;;;;-144.24;100.00;114865.94;5063995;27;46015;-66
2024/01/01 02:15:50;;;;;;;;;3.00;1.75;;;;;-144.24;100.00;114865.94;5064412;28;46782;-65
2024/01/01 02:18:16;;;;;;;;;4.00;2.00;;;;;-144.24;100.00;114865.94;5058745;27;45565;-66
2024/01/01 02:20:41;;;;;;;;;9.00;1.33;;;;;-144.24;100.00;114865.94;5065775;28;46102;-68
2024/01/01 02:23:06;;;;;;;;;5.00;2.00;;;;;-144.24;100.00;114865.94;5060864;28;65289;-69
2024/01/01 02:25:32;;;;;;;;;3.67;1.00;;;;;-144.24;100.00;114865.94;5063940;28;61505;-71
2024/01/01 02:27:57;;;;;;;;;11.75;2.00;;;;;-144.24;100.00;114865.94;5059755;27;68611;-71
2024/01/01 02:30:22;;;;;;;;;1.33;1.00;;;;;-144.24;100.00;114865.94;5055728;28;64107;-72
2024/01/01 02:32:48;;;;;;;;;9.00;3.00;;;;;-144.24;100.00;114865.94;5059027;27;47049;-70
2024/01/01 02:35:13;;;;;;;;;6.75;2.00;;;;;-144.24;100.00;114865.94;5061941;27;62104;-72
2024/01/01 02:37:38;;;;;;;;;2.33;1.00;;;;;-144.24;100.00;114865.94;5061098;28;45502;-71
2024/01/01 02:40:05;;;;;;;;;6.00;2.00;;;;;-144.24;100.00;114865.94;5063016;27;47877;-71
2024/01/01 02:42:32;;;;;;;;;2.33;1.67;;;;;-144.24;100.00;114865.94;5200951;22;46233;-70
2024/01/01 02:44:57;;;;;;;;;4.67;2.00;;;;;-144.24;100.00;114865.94;5080289;27;46844;-70
2024/01/01 02:47:23;;;;;;;;;3.00;2.00;;;;;-144.24;100.00;114865.94;5073179;27;45610;-70
2024/01/01 02:49:48;;;;;;;;;7.00;1.00;;;;;-144.24;100.00;114865.94;5087265;27;63817;-71
2024/01/01 02:52:13;;;;;;;;;4.67;2.67;;;;;-144.24;100.00;114865.94;5087710;27;62931;-72
2024/01/01 02:54:38;;;;;;;;;1.67;1.00;;;;;-144.24;100.00;114865.94;5085266;27;62531;-70
2024/01/01 02:57:04;;;;;;;;;3.00;1.33;;;;;-144.24;100.00;114865.94;5087482;27;65928;-72
2024/01/01 02:59:30;;;;;;;;;3.00;2.50;;;;;-144.24;100.00;114865.94;5087039;27;45574;-72
2024/01/01 03:01:55;;;;;;;;;6.50;1.00;;;;;-144.24;100.00;114865.94;5066988;27;45604;-70
2024/01/01 03:04:20;;;;;;;;;6.00;2.00;;;;;-144.24;100.00;114865.94;5083071;27;69269;-71
2024/01/01 03:06:46;;;;;;;;;3.00;1.00;;;;;-144.24;100.00;114865.94;5086486;27;69614;-71
2024/01/01 03:09:11;;;;;;;;;3.00;1.00;;;;;-144.24;100.00;114865.94;5082890;27;60369;-70
2024/01/01 03:11:36;;;;;;;;;5.50;2.75;;;;;-144.24;100.00;114865.94;5085959;27;67667;-73
2024/01/01 03:14:02;;;;;;;;;2.00;2.00;;;;;-144.24;100.00;114865.94;5081874;27;60984;-71
2024/01/01 03:16:27;;;;;;;;;7.33;3.00;;;;;-144.24;100.00;114865.94;5086836;27;68355;-70
2024/01/01 03:18:52;;;;;;;;;3.00;1.33;;;;;-144.24;100.00;114865.94;5069074;27;61412;-73
2024/01/01 03:21:18;;;;;;;;;3.67;2.00;;;;;-144.24;100.00;114865.94;5086295;27;45680;-73
2024/01/01 03:23:43;;;;;;;;;7.00;1.00;;;;;-144.24;100.00;114865.94;5087633;27;71865;-72
2024/01/01 03:26:09;;;;;;;;;3.67;1.00;;;;;-144.24;100.00;114865.94;5069542;27;45816;-72
2024/01/01 03:28:34;;;;;;;;;6.00;2.33;;;;;-144.24;100.00;114865.94;5088314;27;45475;-72
2024/01/01 03:31:00;;;;;;;;;1.75;1.00;;;;;-144.24;100.00;114865.94;5061952;28;67874;-71
2024/01/01 03:33:26;;;;;;;;;1.00;1.00;;;;;-144.24;100.00;114865.94;5088020;27;45714;-72
2024/01/01 03:35:52;;;;;;;;;2.33;1.00;;;;;-144.24;100.00;114865.94;5067996;27;45525;-71
2024/01/01 03:38:18;;;;;;;;;6.33;2.00;;;;;-144.24;100.00;114865.94;5088686;27;49894;-71
2024/01/01 03:40:43;;;;;;;;;8.00;1.00;;;;;-144.24;100.00;114865.94;5087934;27;59952;-72
2024/01/01 03:43:09;;;;;;;;;7.67;1.00;;;;;-144.24;100.00;114865.94;5087274;27;46295;-71
2024/01/01 03:45:34;;;;;;;;;2.00;2.00;;;;;-144.24;100.00;114865.94;5085863;27;45393;-71
2024/01/01 03:47:59;;;;;;;;;1.00;0.00;;;;;-144.24;100.00;114865.94;5088433;27;65941;-71
2024/01/01 03:50:25;;;;;;;;;4.00;1.33;;;;;-144.24;100.00;114865.94;5087054;27;48610;-72
2024/01/01 03:52:50;;;;;;;;;4.00;1.00;;;;;-144.24;100.00;114865.94;5087520;27;45614;-72
2024/01/01 03:55:15;;;;;;;;;0.00;0.00;;;;;-144.24;100.00;114865.94;5087392;27;65668;-72
2024/01/01 03:57:41;;;;;;;;;7.33;2.00;;;;;-144.24;100.00;114865.94;5080280;27;46739;-70
2024/01/01 04:00:08;;;;;;;;;1.67;0.00;;;;;-144.24;100.00;114865.94;5087232;27;45533;-73
2024/01/01 04:02:33;;;;;;;;;5.33;1.00;;;;;-144.24;100.00;114865.94;5090913;27;46655;-69
2024/01/01 04:04:59;;;;;;;;;0.67;0.67;;;;;-144.24;100.00;114865.94;5086607;27;45396;-70
2024/01/01 04:07:24;;;;;;;;;2.67;0.33;;;;;-144.24;100.00;114865.94;5087153;27;55573;-70
2024/01/01 04:09:49;;;;;;;;;3.33;1.00;;;;;-144.24;100.00;114865.94;5085915;27;62169;-71
2024/01/01 04:12:15;;;;;;;;;4.00;1.00;;;;;-144.24;100.00;114865.94;5086849;27;56889;-71
2024/01/01 04:14:40;;;;;;;;;6.33;1.00;;;;;-144.24;100.00;114865.94;5083344;27;45519;-70
2024/01/01 04:17:05;;;;;;;;;3.00;0.00;;;;;-144.24;100.00;114865.94;5064839;27;45498;-73
2024/01/01 04:19:31;;;;;;;;;1.00;1.00;;;;;-144.24;100.00;114865.94;5090073;27;59250;-70
2024/01/01 04:21:56;;;;;;;;;2.00;2.00;;;;;-144.24;100.00;114865.94;5072538;27;46190;-70
2024/01/01 04:24:22;;;;;;;;;3.00;0.00;;;;;-144.24;100.00;114865.94;5087427;27;45506;-70
2024/01/01 04:26:47;;;;;;;;;4.00;1.00;;;;;-144.24;100.00;114865.94;5091606;27;45396;-70
2024/01/01 04:29:14;;;;;;;;;4.00;0.00;;;;;-144.24;100.00;114865.94;5086481;27;56085;-72
2024/01/01 04:31:40;;;;;;;;;2.00;0.00;;;;;-144.24;100.00;114865.94;5072759;27;47294;-71
2024/01/01 04:34:05;;;;;;;;;1.33;0.33;;;;;-144.24;100.00;114865.94;5086793;27;62776;-70
2024/01/01 04:36:30;;;;;;;;;2.33;1.00;;;;;-144.24;100.00;114865.94;5089339;27;66079;-70
2024/01/01 04:38:56;;;;;;;;;3.67;0.00;;;;;-144.24;100.00;114865.94;5069043;27;61537;-72
2024/01/01 04:41:21;;;;;;;;;1.67;0.00;;;;;-144.24;100.00;114865.94;5064111;27;46178;-70
2024/01/01 04:43:46;;;;;;;;;1.33;0.00;;;;;-144.24;100.00;114865.94;5086444;27;56040;-72
2024/01/01 04:46:12;;;;;;;;;1.33;1.00;;;;;-144.24;100.00;114865.94;5090943;27;64777;-71
2024/01/01 04:48:37;;;;;;;;;3.00;1.00;;;;;-144.24;100.00;114865.94;5090012;27;46200;-70
2024/01/01 04:51:04;;;;;;;;;2.67;1.00;;;;;-144.24;100.00;114865.94;5088779;27;73253;-71
2024/01/01 04:53:29;;;;;;;;;2.00;0.67;;;;;-144.24;100.00;114865.94;5090524;27;45533;-70
2024/01/01 04:55:55;;;;;;;;;7.00;0.00;;;;;-144.24;100.00;114865.94;5072673;27;64002;-70
2024/01/01 04:58:20;;;;;;;;;4.00;2.67;;;;;-144.24;100.00;114865.94;5087030;27;62056;-73
2024/01/01 05:00:46;;;;;;;;;2.00;1.00;;;;;-144.24;100.00;114865.94;5090717;27;46337;-72
2024/01/01 05:03:11;;;;;;;;;2.00;0.00;;;;;-144.24;100.00;114865.94;5091212;27;69294;-72
2024/01/01 05:05:37;;;;;;;;;5.00;1.00;;;;;-144.24;100.00;114865.94;5090258;27;45531;-70
2024/01/01 05:08:02;;;;;;;;;4.67;0.00;;;;;-144.24;100.00;114865.94;5089139;27;59032;-70
2024/01/01 05:10:27;;;;;;;;;2.33;0.00;;;;;-144.24;100.00;114865.94;5090383;27;45492;-71
2024/01/01 05:12:53;;;;;;;;;1.00;1.00;;;;;-144.24;100.00;114865.94;5087517;27;45533;-70
2024/01/01 05:15:18;;;;;;;;;5.67;0.00;;;;;-144.24;100.00;114865.94;5088874;27;59295;-69
2024/01/01 05:17:44;;;;;;;;;2.00;0.00;;;;;-144.24;100.00;114865.94;5090209;27;45620;-70
2024/01/01 05:20:09;;;;;;;;;3.00;0.33;;;;;-144.24;100.00;114865.94;5089870;27;52990;-70
2024/01/01 05:22:35;;;;;;;;;3.67;0.00;;;;;-144.24;100.00;114865.94;5063867;27;45622;-72
2024/01/01 05:25:00;;;;;;;;;4.33;1.00;;;;;-144.24;100.00;114865.94;5086257;27;63061;-71
2024/01/01 05:27:25;;;;;;;;;3.00;1.00;;;;;-144.24;100.00;114865.94;5086778;27;61193;-71
2024/01/01 05:29:51;;;;;;;;;2.00;0.00;;;;;-144.24;100.00;114865.94;5089814;27;71004;-70
2024/01/01 05:32:16;;;;;;;;;3.67;0.00;;;;;-144.24;100.00;114865.94;5088586;27;47309;-71
2024/01/01 05:34:41;;;;;;;;;3.67;1.00;;;;;-144.24;100.00;114865.94;5082514;27;45391;-71
2024/01/01 05:37:08;;;;;;;;;3.00;0.00;;;;;-144.24;100.00;114865.94;5087835;27;52407;-70
2024/01/01 05:39:33;;;;;;;;;3.00;1.00;;;;;-144.24;100.00;114865.94;5089761;27;46743;-73
2024/01/01 05:41:59;;;;;;;;;1.33;0.00;;;;;-144.24;100.00;114865.94;5064530;27;45515;-72
2024/01/01 05:44:24;;;;;;;;;3.00;0.00;;;;;-144.24;100.00;114865.94;5087042;27;59966;-72
2024/01/01 05:46:52;;;;;;;;;0.00;0.00;;;;;-144.24;100.00;114865.94;5087988;27;65528;-71
2024/01/01 05:49:18;;;;;;;;;0.00;0.00;;;;;-144.24;100.00;114865.94;5087756;27;47445;-73
2024/01/01 05:51:44;;;;;;;;;0.67;0.00;;;;;-144.24;100.00;114865.94;5089733;27;45542;-72
2024/01/01 05:54:09;;;;;;;;;0.67;0.00;;;;;-144.24;100.00;114865.94;5093591;27;46130;-71
2024/01/01 05:56:35;;;;;;;;;6.00;1.00;;;;;-144.24;100.00;114865.94;5088554;27;61263;-71
2024/01/01 05:59:00;;;;;;;;;1.33;1.00;;;;;-144.24;100.00;114865.94;5087251;27;46459;-72
2024/01/01 06:01:26;;;;;;;;;6.00;0.00;;;;;-144.24;100.00;114865.94;5089771;27;69550;-71
2024/01/01 06:03:51;;;;;;;;;2.00;0.00;;;;;-144.24;100.00;114865.94;5086530;27;46200;-70
2024/01/01 06:06:17;;;;;;;;;4.00;1.00;;;;;-144.24;100.00;114865.94;5089449;27;45410;-70
2024/01/01 06:08:42;;;;;;;;;0.00;0.00;;;;;-144.24;100.00;114865.94;5087161;27;46850;-70
2024/01/01 06:11:07;;;;;;;;;7.00;0.00;;;;;-144.24;100.00;114865.94;5087651;27;45443;-70
2024/01/01 06:13:33;;;;;;;;;2.33;1.00;;;;;-144.24;100.00;114865.94;5084555;27;62930;-70
2024/01/01 06:15:59;;;;;;;;;1.00;1.00;;;;;-144.24;100.00;114865.94;5088762;27;63195;-71
2024/01/01 06:18:25;;;;;;;;;2.00;1.00;;;;;-144.24;100.00;114865.94;5087228;27;45894;-70
2024/01/01 06:20:50;;;;;;;;;0.00;0.00;;;;;-144.24;100.00;114865.94;5089015;27;45658;-72
2024/01/01 06:23:16;;;;;;;;;2.33;0.33;;;;;-144.24;100.00;114865.94;5089294;27;45530;-71
2024/01/01 06:25:41;;;;;;;;;4.67;1.33;;;;;-144.24;100.00;114865.94;5081854;27;45686;-71
2024/01/01 06:28:06;;;;;;;;;5.33;3.00;;;;;-144.24;100.00;114865.94;5088665;27;70807;-70
2024/01/01 06:30:34;;;;;;;;;0.00;0.00;;;;;-144.24;100.00;114865.94;5086584;27;45462;-72
2024/01/01 06:33:01;;;;;;;;;2.00;1.00;;;;;-144.24;100.00;114865.94;5086140;27;45498;-71
2024/01/01 06:35:30;;;;;;;;;4.00;0.00;;;;;-144.24;100.00;114865.94;5088496;27;45441;-73
2024/01/01 06:37:55;;;;;;;;;3.33;0.67;;;;;-144.24;100.00;114865.94;5088539;27;45554;-70
2024/01/01 06:40:20;;;;;;;;;5.67;1.00;;;;;-144.24;100.00;114865.94;5089543;27;46293;-70
2024/01/01 06:42:46;;;;;;;;;3.00;1.25;;;;;-144.24;100.00;114865.94;5088289;27;66990;-72
2024/01/01 06:45:11;;;;;;;;;0.67;0.00;;;;;-144.24;100.00;114865.94;5087849;27;64510;-72
2024/01/01 06:47:36;;;;;;;;;1.33;0.00;;;;;-144.24;100.00;114865.94;5091266;27;46923;-71
2024/01/01 06:50:02;;;;;;;;;3.00;2.00;;;;;-144.24;100.00;114865.94;5087471;27;59050;-70
2024/01/01 06:52:28;;;;;;;;;1.33;1.00;;;;;-144.24;100.00;114865.94;5089048;27;45506;-71
2024/01/01 06:54:53;;;;;;;;;2.00;0.00;;;;;-144.24;100.00;114865.94;5092135;27;45875;-70
2024/01/01 06:57:18;;;;;;;;;0.33;0.33;;;;;-144.24;100.00;114865.94;5087616;27;71065;-71
2024/01/01 06:59:44;;;;;;;;;0.67;0.67;;;;;-144.24;100.00;114865.94;5086314;27;71324;-71
2024/01/01 07:02:09;;;;;;;;;1.67;0.00;;;;;-144.24;100.00;114865.94;5090901;27;45633;-72
2024/01/01 07:04:35;;;;;;;;;1.00;1.00;;;;;-144.24;100.00;114865.94;5083315;27;55487;-71
2024/01/01 07:07:00;;;;;;;;;2.00;1.00;;;;;-144.24;100.00;114865.94;5088274;27;49088;-73
2024/01/01 07:09:26;;;;;;;;;4.00;1.00;;;;;-144.24;100.00;114865.94;5083975;27;45448;-72
2024/01/01 07:11:54;;;;;;;;;2.00;0.00;;;;;-144.24;100.00;114865.94;5086606;27;60492;-73
2024/01/01 07:14:20;;;;;;;;;6.00;1.67;;;;;-144.24;100.00;114865.94;5087480;27;45526;-70
2024/01/01 07:16:45;;;;;;;;;4.00;1.00;;;;;-144.24;100.00;114865.94;5088065;27;50748;-72
2024/01/01 07:19:10;;;;;;;;;3.33;0.00;;;;;-144.24;100.00;114865.94;5087182;27;61527;-72
2024/01/01 07:21:36;;;;;;;;;9.33;0.33;;;;;-144.24;100.00;114865.94;5086323;27;63333;-72
2024/01/01 07:24:01;;;;;;;;;3.25;0.00;;;;;-144.24;100.00;114865.94;5087669;27;45555;-72
2024/01/01 07:26:27;;;;;;;;;1.00;1.00;;;;;-144.24;100.00;114865.94;5088540;27;46624;-72
2024/01/01 07:28:52;;;;;;;;;1.00;1.00;;;;;-144.24;100.00;114865.94;5088427;27;46265;-71
2024/01/01 07:31:18;;;;;;;;;1.75;1.00;;;;;-144.24;100.00;114865.94;5087578;27;68161;-71
2024/01/01 07:33:43;;;;;;;;;1.33;0.33;;;;;-144.24;100.00;114865.94;5088612;27;65045;-71
2024/01/01 07:36:11;;;;;;;;;5.67;0.67;;;;;-144.24;100.00;114865.94;5084288;27;65161;-71
2024/01/01 07:38:36;;;;;;;;;2.33;0.00;;;;;-144.24;100.00;114865.94;5088091;27;45826;-71
2024/01/01 07:41:02;;;;;;;;;0.00;0.00;;;;;-144.24;100.00;114865.94;5088869;27;45513;-70
2024/01/01 07:43:27;;;;;;;;;3.75;0.50;;;;;-144.24;100.00;114865.94;5086431;27;53940;-70
2024/01/01 07:45:52;;;;;;;;;3.00;1.67;;;;;-144.24;100.00;114865.94;5087736;27;69265;-71
2024/01/01 07:48:17;;;;;;;;;1.67;0.67;;;;;-144.24;100.00;114865.94;5086580;27;60471;-71
2024/01/01 07:50:43;;;;;;;;;2.25;0.25;;;;;-144.24;100.00;114865.94;5089133;27;50619;-72
2024/01/01 07:53:08;;;;;;;;;0.33;0.00;;;;;-144.24;100.00;114865.94;5071032;27;45472;-72
2024/01/01 07:55:35;;;;;;;;;5.33;0.00;;;;;-144.24;100.00;114865.94;5095521;27;70346;-71
2024/01/01 07:58:01;;;;;;;;;3.50;1.00;;;;;-144.24;100.00;114865.94;5088391;27;45490;-70
2024/01/01 08:00:26;;;;;;;;;2.33;0.67;;;;;-144.24;100.00;114865.94;5092269;27;45428;-73
2024/01/01 08:02:51;;;;;;;;;2.25;1.00;;;;;-144.24;100.00;114865.94;5092300;27;63600;-70
2024/01/01 08:05:17;;;;;;;;;3.00;1.00;;;;;-144.24;100.00;114865.94;5091373;27;45623;-70
2024/01/01 08:07:47;;;;;;;;;0.00;0.00;;;;;-144.24;100.00;114865.94;5091538;27;45714;-73
2024/01/01 08:10:15;;;;;;;;;7.00;2.00;;;;;-144.24;100.00;114865.94;5087980;27;45506;-71
2024/01/01 08:12:41;;;;;;;;;0.33;0.00;;;;;-144.24;100.00;114865.94;5091130;27;45545;-72
2024/01/01 08:15:07;;;;;;;;;1.00;0.00;;;;;-144.24;100.00;114865.94;5093857;27;45626;-72
2024/01/01 08:17:32;;;;;;;;;6.33;1.00;;;;;-144.24;100.00;114865.94;5091019;27;45425;-70
2024/01/01 08:19:57;;;;;;;;;0.67;0.00;;;;;-144.24;100.00;114865.94;5090963;27;62724;-72
2024/01/01 08:22:23;;;;;;;;;2.00;1.00;;;;;-144.24;100.00;114865.94;5087671;27;52711;-70
2024/01/01 08:24:48;;;;;;;;;2.00;0.33;;;;;-144.24;100.00;114865.94;5085834;27;60462;-70
2024/01/01 08:27:13;;;;;;;;;5.67;1.00;;;;;-144.24;100.00;114865.94;5090516;27;68115;-69
2024/01/01 08:29:39;;;;;;;;;0.00;0.00;;;;;-144.24;100.00;114865.94;5086497;27;45760;-72
2024/01/01 08:32:04;;;;;;;;;1.33;0.00;;;;;-144.24;100.00;114865.94;5090591;27;64291;-72
2024/01/01 08:34:31;;;;;;;;;7.75;0.00;;;;;-144.24;100.00;114865.94;5090287;27;47546;-72
2024/01/01 08:36:58;;;;;;;;;5.00;1.00;;;;;-144.24;100.00;114865.94;5072339;27;45566;-72
2024/01/01 08:39:24;;;;;;;;;3.00;0.00;;;;;-144.24;100.00;114865.94;5072737;27;45450;-70
2024/01/01 08:41:49;;;;;;;;;8.67;1.00;;;;;-144.24;100.00;114865.94;5087997;27;45455;-70
2024/01/01 08:44:14;;;;;;;;;5.67;0.00;;;;;-144.24;100.00;114865.94;5086488;27;45853;-70
2024/01/01 08:46:40;;;;;;;;;2.00;0.67;;;;;-144.24;100.00;114865.94;5089326;27;67527;-72
2024/01/01 08:49:05;;;;;;;;;3.00;1.00;;;;;-144.24;100.00;114865.94;5091020;27;46302;-72
2024/01/01 08:51:31;;;;;;;;;2.67;1.00;;;;;-144.24;100.00;114865.94;5071012;27;45520;-70
2024/01/01 08:53:56;;;;;;;;;7.00;0.00;;;;;-144.24;100.00;114865.94;5094146;27;48631;-70
2024/01/01 08:56:21;;;;;;;;;3.00;1.00;;;;;-144.24;100.00;114865.94;5089342;27;45769;-70
2024/01/01 08:58:47;;;;;;;;;3.33;1.00;;;;;-144.24;100.00;114865.94;5087297;27;45463;-70
2024/01/01 09:01:12;;;;;;;;;1.67;0.33;;;;;-144.24;100.00;114865.94;5088417;27;65579;-72
2024/01/01 09:03:38;;;;;;;;;2.67;0.33;;;;;-144.24;100.00;114865.94;5091912;27;74125;-72
2024/01/01 09:06:03;;;;;;;;;2.00;1.00;;;;;-144.24;100.00;114865.94;5088634;27;45581;-70
2024/01/01 09:08:29;;;;;;;;;2.00;0.00;;;;;-144.24;100.00;114865.94;5086138;27;45584;-70
2024/01/01 09:10:54;;;;;;;;;3.67;1.00;;;;;-144.24;100.00;114865.94;5082795;27;45549;-72
2024/01/01 09:13:19;;;;;;;;;2.67;1.00;;;;;-144.24;100.00;114865.94;5089456;27;61409;-70
2024/01/01 09:15:45;;;;;;;;;1.33;0.00;;;;;-144.24;100.00;114865.94;5086301;27;45482;-70
2024/01/01 09:18:10;;;;;;;;;2.67;1.00;;;;;-144.24;100.00;114865.94;5072345;27;45470;-70
2024/01/01 09:20:36;;;;;;;;;6.67;1.00;;;;;-144.24;100.00;114865.94;5085982;27;56800;-70
2024/01/01 09:23:01;;;;;;;;;0.00;0.00;;;;;-144.24;100.00;114865.94;5081262;27;45407;-70
2024/01/01 09:25:26;;;;;;;;;4.00;1.00;;;;;-144.24;100.00;114865.94;5089964;27;45631;-70
2024/01/01 09:27:52;;;;;;;;;3.00;0.33;;;;;-144.24;100.00;114865.94;5089962;27;64168;-70
2024/01/01 09:30:18;;;;;;;;;4.00;0.33;;;;;-144.24;100.00;114865.94;5086157;27;45461;-70
2024/01/01 09:32:43;;;;;;;;;4.00;1.00;;;;;-144.24;100.00;114865.94;5088912;27;73669;-72
2024/01/01 09:35:08;;;;;;;;;2.67;0.33;;;;;-144.24;100.00;114865.94;5089898;27;45594;-70
2024/01/01 09:37:34;;;;;;;;;2.00;1.00;;;;;-144.24;100.00;114865.94;5089434;27;65560;-72
2024/01/01 09:39:59;;;;;;;;;1.00;0.00;;;;;-144.24;100.00;114865.94;5087317;27;45810;-69
2024/01/01 09:42:25;;;;;;;;;5.00;1.00;;;;;-144.24;100.00;114865.94;5088374;27;69656;-72
2024/01/01 09:44:52;;;;;;;;;3.00;1.00;;;;;-144.24;100.00;114865.94;5079901;27;62117;-70
2024/01/01 09:47:17;;;;;;;;;2.33;1.00;;;;;-144.24;100.00;114865.94;5073451;27;46158;-72
2024/01/01 09:49:43;;;;;;;;;5.00;1.00;;;;;-144.24;100.00;114865.94;5083949;27;63098;-71
2024/01/01 09:52:12;;;;;;;;;3.00;2.00;;;;;-144.24;100.00;114865.94;5084624;27;47472;-70
2024/01/01 09:54:37;;;;;;;;;0.67;0.00;;;;;-144.24;100.00;114865.94;5087002;27;45564;-71
2024/01/01 09:57:03;;;;;;;;;2.33;1.00;;;;;-144.24;100.00;114865.94;5086725;27;61673;-69
2024/01/01 09:59:39;;;;;;;;;9.33;1.00;;;;;-144.24;100.00;114865.94;5071437;27;45588;-71
2024/01/01 10:02:06;;;;;;;;;1.00;1.00;;;;;-144.24;100.00;114865.94;5091486;27;46099;-70
2024/01/01 10:04:32;;;;;;;;;1.00;1.00;;;;;-144.24;100.00;114865.94;5089065;27;45491;-73
2024/01/01 10:07:00;;;;;;;;;0.00;0.00;;;;;-144.24;100.00;114865.94;5089584;27;45548;-70
2024/01/01 10:09:27;;;;;;;;;6.67;0.33;;;;;-144.24;100.00;114865.94;5088563;27;45783;-70
2024/01/01 10:11:52;;;;;;;;;7.00;1.33;;;;;-144.24;100.00;114865.94;5089335;27;46397;-70
2024/01/01 10:14:18;;;;;;;;;3.67;1.00;;;;;-144.24;100.00;114865.94;5067653;27;45538;-70
2024/01/01 10:16:44;;;;;;;;;2.00;1.00;;;;;-144.24;100.00;114865.94;5070961;27;45449;-70
2024/01/01 10:19:09;;;;;;;;;4.33;1.00;;;;;-144.24;100.00;114865.94;5086372;27;45870;-71
2024/01/01 10:21:36;;;;;;;;;7.00;1.33;;;;;-144.24;100.00;114865.94;5083025;27;45759;-71
2024/01/01 10:24:21;;;;;;;;;1.00;1.00;;;;;-144.24;100.00;114865.94;5088333;27;45794;-70
2024/01/01 10:26:47;;;;;;;;;3.67;0.67;;;;;-144.24;100.00;114865.94;5089631;27;45450;-72
2024/01/01 10:29:14;;;;;;;;;2.00;1.00;;;;;-144.24;100.00;114865.94;5084164;27;46033;-70
2024/01/01 10:31:47;;;;;;;;;7.67;1.00;;;;;-144.24;100.00;114865.94;5089101;27;46497;-70
2024/01/01 10:34:12;;;;;;;;;1.67;1.00;;;;;-144.24;100.00;114865.94;5066826;27;45535;-72
2024/01/01 10:36:40;;;;;;;;;2.00;0.00;;;;;-144.24;100.00;114865.94;5086465;27;45473;-72
2024/01/01 10:39:06;;;;;;;;;3.33;0.67;;;;;-144.24;100.00;114865.94;5084074;27;45459;-73
2024/01/01 10:41:32;;;;;;;;;3.67;2.00;;;;;-144.24;100.00;114865.94;5083243;27;46586;-73
2024/01/01 10:43:58;;;;;;;;;1.00;1.00;;;;;-144.24;100.00;114865.94;5088382;27;45513;-69
2024/01/01 10:46:24;;;;;;;;;4.00;1.00;;;;;-144.24;100.00;114865.94;5085460;27;66102;-72
2024/01/01 10:48:50;;;;;;;;;0.33;0.33;;;;;-144.24;100.00;114865.94;5069681;27;45505;-70
2024/01/01 10:52:08;;;;;;;;;3.00;2.00;;;;;-144.24;100.00;114865.94;5088462;27;47260;-73
2024/01/01 10:54:50;;;;;;;;;2.33;2.00;;;;;-144.24;100.00;114865.94;5019862;27;45604;-73
2024/01/01 10:57:40;;;;;;;;;0.33;0.33;;;;;-144.24;100.00;114865.94;5062653;27;45464;-73